sensor_id;sensor_type;location;lat;lon;timestamp;pressure;altitude;pressure_sealevel;temperature;humidity
50852;BME280;43953;45.508;-122.806;2023-03-01T00:00:06;99544.63;;;7.31;64.59
50852;BME280;43953;45.508;-122.806;2023-03-01T00:00:37;99544.63;;;7.31;64.75
50852;BME280;43953;45.508;-122.806;2023-03-01T00:01:13;99541.31;;;7.28;65.11
50852;BME280;43953;45.508;-122.806;2023-03-01T00:01:45;99544.19;;;7.27;64.66
50852;BME280;43953;45.508;-122.806;2023-03-01T00:02:16;99549.78;;;7.25;64.85
50852;BME280;43953;45.508;-122.806;2023-03-01T00:02:47;99555.13;;;7.25;64.84
50852;BME280;43953;45.508;-122.806;2023-03-01T00:03:18;99553.47;;;7.24;65.00
50852;BME280;43953;45.508;-122.806;2023-03-01T00:03:50;99552.91;;;7.22;65.10
50852;BME280;43953;45.508;-122.806;2023-03-01T00:04:21;99551.22;;;7.21;64.82
50852;BME280;43953;45.508;-122.806;2023-03-01T00:04:52;99557.63;;;7.20;65.04
50852;BME280;43953;45.508;-122.806;2023-03-01T00:05:23;99550.66;;;7.19;64.72
50852;BME280;43953;45.508;-122.806;2023-03-01T00:05:55;99554.34;;;7.18;64.62
50852;BME280;43953;45.508;-122.806;2023-03-01T00:06:26;99554.34;;;7.18;64.89
50852;BME280;43953;45.508;-122.806;2023-03-01T00:06:58;99558.88;;;7.18;64.87
50852;BME280;43953;45.508;-122.806;2023-03-01T00:07:29;99564.22;;;7.18;64.76
50852;BME280;43953;45.508;-122.806;2023-03-01T00:08:00;99558.88;;;7.18;64.87
50852;BME280;43953;45.508;-122.806;2023-03-01T00:08:32;99554.56;;;7.17;64.77
50852;BME280;43953;45.508;-122.806;2023-03-01T00:09:03;99561.78;;;7.16;64.50
50852;BME280;43953;45.508;-122.806;2023-03-01T00:09:35;99560.94;;;7.16;64.61
50852;BME280;43953;45.508;-122.806;2023-03-01T00:10:07;99563.84;;;7.14;64.46
50852;BME280;43953;45.508;-122.806;2023-03-01T00:10:38;99562.22;;;7.13;64.92
50852;BME280;43953;45.508;-122.806;2023-03-01T00:11:12;99563.03;;;7.14;64.97
50852;BME280;43953;45.508;-122.806;2023-03-01T00:11:44;99567.16;;;7.16;64.60
50852;BME280;43953;45.508;-122.806;2023-03-01T00:12:15;99564.22;;;7.18;64.88
50852;BME280;43953;45.508;-122.806;2023-03-01T00:12:46;99567.53;;;7.20;64.66
50852;BME280;43953;45.508;-122.806;2023-03-01T00:13:18;99570.81;;;7.22;64.81
50852;BME280;43953;45.508;-122.806;2023-03-01T00:13:50;99572.44;;;7.23;64.80
50852;BME280;43953;45.508;-122.806;2023-03-01T00:14:22;99569.53;;;7.24;64.29
50852;BME280;43953;45.508;-122.806;2023-03-01T00:14:54;99572.84;;;7.26;64.65
50852;BME280;43953;45.508;-122.806;2023-03-01T00:15:25;99572.84;;;7.26;64.20
50852;BME280;43953;45.508;-122.806;2023-03-01T00:15:56;99571.59;;;7.29;64.44
50852;BME280;43953;45.508;-122.806;2023-03-01T00:16:29;99578.56;;;7.30;64.31
50852;BME280;43953;45.508;-122.806;2023-03-01T00:17:01;99584.78;;;7.31;64.30
50852;BME280;43953;45.508;-122.806;2023-03-01T00:17:32;99575.69;;;7.32;64.01
50852;BME280;43953;45.508;-122.806;2023-03-01T00:18:03;99580.00;;;7.33;64.22
50852;BME280;43953;45.508;-122.806;2023-03-01T00:18:35;99577.94;;;7.35;64.38
50852;BME280;43953;45.508;-122.806;2023-03-01T00:19:07;99578.75;;;7.35;64.02
50852;BME280;43953;45.508;-122.806;2023-03-01T00:19:39;99582.25;;;7.36;64.12
50852;BME280;43953;45.508;-122.806;2023-03-01T00:20:10;99579.38;;;7.37;63.99
50852;BME280;43953;45.508;-122.806;2023-03-01T00:20:41;99583.47;;;7.40;63.64
50852;BME280;43953;45.508;-122.806;2023-03-01T00:21:20;99578.13;;;7.40;63.66
50852;BME280;43953;45.508;-122.806;2023-03-01T00:21:51;99578.94;;;7.40;63.70
50852;BME280;43953;45.508;-122.806;2023-03-01T00:22:23;99585.94;;;7.41;63.53
50852;BME280;43953;45.508;-122.806;2023-03-01T00:22:54;99575.22;;;7.41;63.59
50852;BME280;43953;45.508;-122.806;2023-03-01T00:23:25;99574.41;;;7.41;63.30
50852;BME280;43953;45.508;-122.806;2023-03-01T00:23:57;99583.47;;;7.40;63.25
50852;BME280;43953;45.508;-122.806;2023-03-01T00:24:28;99584.50;;;7.39;62.89
50852;BME280;43953;45.508;-122.806;2023-03-01T00:24:59;99589.84;;;7.39;62.82
50852;BME280;43953;45.508;-122.806;2023-03-01T00:25:30;99587.19;;;7.39;62.90
50852;BME280;43953;45.508;-122.806;2023-03-01T00:26:04;99593.34;;;7.39;63.20
50852;BME280;43953;45.508;-122.806;2023-03-01T00:26:37;99587.19;;;7.39;63.10
50852;BME280;43953;45.508;-122.806;2023-03-01T00:27:08;99589.84;;;7.39;62.79
50852;BME280;43953;45.508;-122.806;2023-03-01T00:27:39;99594.41;;;7.38;62.82
50852;BME280;43953;45.508;-122.806;2023-03-01T00:28:10;99591.09;;;7.36;62.76
50852;BME280;43953;45.508;-122.806;2023-03-01T00:28:42;99595.63;;;7.36;63.16
50852;BME280;43953;45.508;-122.806;2023-03-01T00:29:13;99598.31;;;7.36;62.80
50852;BME280;43953;45.508;-122.806;2023-03-01T00:29:44;99588.41;;;7.36;62.88
50852;BME280;43953;45.508;-122.806;2023-03-01T00:30:16;99598.31;;;7.36;62.88
50852;BME280;43953;45.508;-122.806;2023-03-01T00:30:47;99587.59;;;7.36;63.02
50852;BME280;43953;45.508;-122.806;2023-03-01T00:31:19;99592.97;;;7.36;62.66
50852;BME280;43953;45.508;-122.806;2023-03-01T00:31:51;99599.97;;;7.37;63.13
50852;BME280;43953;45.508;-122.806;2023-03-01T00:32:22;99595.63;;;7.36;62.94
50852;BME280;43953;45.508;-122.806;2023-03-01T00:32:53;99596.69;;;7.35;63.04
50852;BME280;43953;45.508;-122.806;2023-03-01T00:33:25;99594.22;;;7.33;63.12
50852;BME280;43953;45.508;-122.806;2023-03-01T00:33:57;99595.50;;;7.31;63.05
50852;BME280;43953;45.508;-122.806;2023-03-01T00:34:28;99593.81;;;7.29;62.78
50852;BME280;43953;45.508;-122.806;2023-03-01T00:35:00;99594.88;;;7.28;62.76
50852;BME280;43953;45.508;-122.806;2023-03-01T00:35:34;99604.53;;;7.29;62.85
50852;BME280;43953;45.508;-122.806;2023-03-01T00:36:06;99606.59;;;7.27;63.05
50852;BME280;43953;45.508;-122.806;2023-03-01T00:36:37;99598.78;;;7.26;63.07
50852;BME280;43953;45.508;-122.806;2023-03-01T00:37:08;99603.53;;;7.24;63.18
50852;BME280;43953;45.508;-122.806;2023-03-01T00:37:39;99601.09;;;7.22;63.46
50852;BME280;43953;45.508;-122.806;2023-03-01T00:38:12;99609.53;;;7.19;63.29
50852;BME280;43953;45.508;-122.806;2023-03-01T00:38:44;99602.53;;;7.18;63.21
50852;BME280;43953;45.508;-122.806;2023-03-01T00:39:15;99606.25;;;7.17;63.51
50852;BME280;43953;45.508;-122.806;2023-03-01T00:39:47;99606.69;;;7.14;63.87
50852;BME280;43953;45.508;-122.806;2023-03-01T00:40:18;99602.38;;;7.13;64.04
50852;BME280;43953;45.508;-122.806;2023-03-01T00:40:49;99611.41;;;7.12;64.54
50852;BME280;43953;45.508;-122.806;2023-03-01T00:41:21;99609.97;;;7.10;64.27
50852;BME280;43953;45.508;-122.806;2023-03-01T00:41:57;99613.94;;;7.07;64.66
50852;BME280;43953;45.508;-122.806;2023-03-01T00:42:28;99612.28;;;7.06;64.82
50852;BME280;43953;45.508;-122.806;2023-03-01T00:43:00;99610.63;;;7.05;64.39
50852;BME280;43953;45.508;-122.806;2023-03-01T00:43:31;99617.03;;;7.04;64.40
50852;BME280;43953;45.508;-122.806;2023-03-01T00:44:07;99619.09;;;7.02;64.45
50852;BME280;43953;45.508;-122.806;2023-03-01T00:44:38;99613.75;;;7.02;64.91
50852;BME280;43953;45.508;-122.806;2023-03-01T00:45:09;99619.09;;;7.02;64.98
50852;BME280;43953;45.508;-122.806;2023-03-01T00:45:40;99617.44;;;7.01;65.13
50852;BME280;43953;45.508;-122.806;2023-03-01T00:46:13;99614.75;;;7.01;64.96
50852;BME280;43953;45.508;-122.806;2023-03-01T00:46:44;99612.06;;;7.01;64.93
50852;BME280;43953;45.508;-122.806;2023-03-01T00:47:15;99621.16;;;7.00;64.52
50852;BME280;43953;45.508;-122.806;2023-03-01T00:47:47;99615.81;;;7.00;64.89
50852;BME280;43953;45.508;-122.806;2023-03-01T00:48:19;99619.28;;;7.00;64.76
50852;BME280;43953;45.508;-122.806;2023-03-01T00:48:50;99620.53;;;6.98;64.79
50852;BME280;43953;45.508;-122.806;2023-03-01T00:49:21;99612.50;;;6.98;64.73
50852;BME280;43953;45.508;-122.806;2023-03-01T00:49:54;99627.56;;;6.99;65.08
50852;BME280;43953;45.508;-122.806;2023-03-01T00:50:26;99628.56;;;6.98;64.70
50852;BME280;43953;45.508;-122.806;2023-03-01T00:50:57;99625.88;;;6.98;65.07
50852;BME280;43953;45.508;-122.806;2023-03-01T00:51:28;99627.75;;;6.97;64.89
50852;BME280;43953;45.508;-122.806;2023-03-01T00:52:00;99626.13;;;6.96;65.00
50852;BME280;43953;45.508;-122.806;2023-03-01T00:52:31;99623.63;;;6.95;65.12
50852;BME280;43953;45.508;-122.806;2023-03-01T00:53:02;99629.00;;;6.95;65.15
50852;BME280;43953;45.508;-122.806;2023-03-01T00:53:35;99626.31;;;6.95;65.30
50852;BME280;43953;45.508;-122.806;2023-03-01T00:54:09;99630.25;;;6.92;65.22
50852;BME280;43953;45.508;-122.806;2023-03-01T00:54:41;99624.91;;;6.92;65.46
50852;BME280;43953;45.508;-122.806;2023-03-01T00:55:12;99628.41;;;6.93;65.12
50852;BME280;43953;45.508;-122.806;2023-03-01T00:55:43;99624.91;;;6.92;64.98
50852;BME280;43953;45.508;-122.806;2023-03-01T00:56:14;99636.44;;;6.93;65.19
50852;BME280;43953;45.508;-122.806;2023-03-01T00:56:46;99629.41;;;6.92;64.79
50852;BME280;43953;45.508;-122.806;2023-03-01T00:57:17;99628.59;;;6.91;65.18
50852;BME280;43953;45.508;-122.806;2023-03-01T00:57:48;99629.41;;;6.92;65.20
50852;BME280;43953;45.508;-122.806;2023-03-01T00:58:19;99629.63;;;6.90;65.34
50852;BME280;43953;45.508;-122.806;2023-03-01T00:58:50;99629.41;;;6.92;65.36
50852;BME280;43953;45.508;-122.806;2023-03-01T00:59:22;99631.06;;;6.93;64.80
50852;BME280;43953;45.508;-122.806;2023-03-01T00:59:53;99636.44;;;6.93;65.18
50852;BME280;43953;45.508;-122.806;2023-03-01T01:00:24;99626.53;;;6.93;65.00
50852;BME280;43953;45.508;-122.806;2023-03-01T01:00:58;99637.25;;;6.93;65.08
50852;BME280;43953;45.508;-122.806;2023-03-01T01:01:29;99637.25;;;6.93;64.73
50852;BME280;43953;45.508;-122.806;2023-03-01T01:02:01;99637.25;;;6.93;65.45
50852;BME280;43953;45.508;-122.806;2023-03-01T01:02:33;99637.44;;;6.92;64.90
50852;BME280;43953;45.508;-122.806;2023-03-01T01:03:04;99633.94;;;6.91;64.74
50852;BME280;43953;45.508;-122.806;2023-03-01T01:03:35;99636.84;;;6.90;65.23
50852;BME280;43953;45.508;-122.806;2023-03-01T01:04:08;99643.22;;;6.89;64.74
50852;BME280;43953;45.508;-122.806;2023-03-01T01:04:40;99636.03;;;6.89;64.74
50852;BME280;43953;45.508;-122.806;2023-03-01T01:05:11;99636.84;;;6.90;64.95
50852;BME280;43953;45.508;-122.806;2023-03-01T01:05:43;99644.06;;;6.89;65.40
50852;BME280;43953;45.508;-122.806;2023-03-01T01:06:18;99639.72;;;6.88;65.03
50852;BME280;43953;45.508;-122.806;2023-03-01T01:06:50;99643.22;;;6.89;65.18
50852;BME280;43953;45.508;-122.806;2023-03-01T01:07:21;99650.22;;;6.90;64.97
50852;BME280;43953;45.508;-122.806;2023-03-01T01:07:52;99647.75;;;6.88;65.31
50852;BME280;43953;45.508;-122.806;2023-03-01T01:08:23;99645.88;;;6.89;65.53
50852;BME280;43953;45.508;-122.806;2023-03-01T01:08:55;99652.09;;;6.89;65.18
50852;BME280;43953;45.508;-122.806;2023-03-01T01:09:26;99649.41;;;6.89;65.36
50852;BME280;43953;45.508;-122.806;2023-03-01T01:09:57;99648.56;;;6.89;65.39
50852;BME280;43953;45.508;-122.806;2023-03-01T01:10:29;99657.63;;;6.88;65.15
50852;BME280;43953;45.508;-122.806;2023-03-01T01:11:00;99657.44;;;6.89;65.37
50852;BME280;43953;45.508;-122.806;2023-03-01T01:11:31;99660.13;;;6.89;64.99
50852;BME280;43953;45.508;-122.806;2023-03-01T01:12:03;99655.34;;;6.91;65.03
50852;BME280;43953;45.508;-122.806;2023-03-01T01:12:35;99657.03;;;6.92;65.42
50852;BME280;43953;45.508;-122.806;2023-03-01T01:13:06;99655.97;;;6.93;65.39
50852;BME280;43953;45.508;-122.806;2023-03-01T01:13:38;99659.47;;;6.94;65.44
50852;BME280;43953;45.508;-122.806;2023-03-01T01:14:09;99664.81;;;6.94;65.43
50852;BME280;43953;45.508;-122.806;2023-03-01T01:14:40;99659.47;;;6.94;65.43
50852;BME280;43953;45.508;-122.806;2023-03-01T01:15:12;99663.78;;;6.95;64.98
50852;BME280;43953;45.508;-122.806;2023-03-01T01:15:44;99660.28;;;6.94;65.39
50852;BME280;43953;45.508;-122.806;2023-03-01T01:16:16;99662.16;;;6.94;65.68
50852;BME280;43953;45.508;-122.806;2023-03-01T01:16:48;99658.44;;;6.95;65.43
50852;BME280;43953;45.508;-122.806;2023-03-01T01:17:19;99661.09;;;6.95;65.22
50852;BME280;43953;45.508;-122.806;2023-03-01T01:17:50;99660.69;;;6.98;65.15
50852;BME280;43953;45.508;-122.806;2023-03-01T01:18:21;99667.47;;;7.00;64.99
50852;BME280;43953;45.508;-122.806;2023-03-01T01:18:53;99670.75;;;7.02;65.30
50852;BME280;43953;45.508;-122.806;2023-03-01T01:19:24;99669.72;;;7.03;65.14
50852;BME280;43953;45.508;-122.806;2023-03-01T01:19:55;99667.66;;;7.05;64.73
50852;BME280;43953;45.508;-122.806;2023-03-01T01:20:27;99664.78;;;7.07;64.85
50852;BME280;43953;45.508;-122.806;2023-03-01T01:21:02;99667.84;;;7.11;64.79
50852;BME280;43953;45.508;-122.806;2023-03-01T01:21:33;99669.28;;;7.13;64.37
50852;BME280;43953;45.508;-122.806;2023-03-01T01:22:05;99674.22;;;7.16;64.23
50852;BME280;43953;45.508;-122.806;2023-03-01T01:22:36;99669.47;;;7.18;64.16
50852;BME280;43953;45.508;-122.806;2023-03-01T01:23:07;99672.75;;;7.20;64.17
50852;BME280;43953;45.508;-122.806;2023-03-01T01:23:38;99673.56;;;7.21;63.94
50852;BME280;43953;45.508;-122.806;2023-03-01T01:24:10;99676.06;;;7.22;63.93
50852;BME280;43953;45.508;-122.806;2023-03-01T01:24:42;99670.47;;;7.24;63.53
50852;BME280;43953;45.508;-122.806;2023-03-01T01:25:13;99677.50;;;7.25;63.69
50852;BME280;43953;45.508;-122.806;2023-03-01T01:25:44;99683.66;;;7.25;63.72
50852;BME280;43953;45.508;-122.806;2023-03-01T01:26:17;99678.06;;;7.27;63.26
50852;BME280;43953;45.508;-122.806;2023-03-01T01:26:48;99677.06;;;7.28;63.30
50852;BME280;43953;45.508;-122.806;2023-03-01T01:27:20;99681.56;;;7.27;63.51
50852;BME280;43953;45.508;-122.806;2023-03-01T01:27:51;99685.28;;;7.26;63.02
50852;BME280;43953;45.508;-122.806;2023-03-01T01:28:22;99678.31;;;7.25;63.13
50852;BME280;43953;45.508;-122.806;2023-03-01T01:28:53;99687.34;;;7.24;63.52
50852;BME280;43953;45.508;-122.806;2023-03-01T01:29:25;99682.22;;;7.23;63.15
50852;BME280;43953;45.508;-122.806;2023-03-01T01:29:56;99684.91;;;7.23;63.67
50852;BME280;43953;45.508;-122.806;2023-03-01T01:30:27;99690.03;;;7.24;63.43
50852;BME280;43953;45.508;-122.806;2023-03-01T01:30:59;99688.38;;;7.23;63.09
50852;BME280;43953;45.508;-122.806;2023-03-01T01:31:30;99687.34;;;7.24;63.01
50852;BME280;43953;45.508;-122.806;2023-03-01T01:32:02;99691.31;;;7.22;63.32
50852;BME280;43953;45.508;-122.806;2023-03-01T01:32:33;99690.44;;;7.21;63.23
50852;BME280;43953;45.508;-122.806;2023-03-01T01:33:04;99696.84;;;7.20;62.64
50852;BME280;43953;45.508;-122.806;2023-03-01T01:33:35;99693.56;;;7.18;63.04
50852;BME280;43953;45.508;-122.806;2023-03-01T01:34:09;99693.78;;;7.17;62.99
50852;BME280;43953;45.508;-122.806;2023-03-01T01:34:43;99692.97;;;7.16;63.13
50852;BME280;43953;45.508;-122.806;2023-03-01T01:35:14;99694.78;;;7.16;63.36
50852;BME280;43953;45.508;-122.806;2023-03-01T01:35:46;99692.34;;;7.14;63.16
50852;BME280;43953;45.508;-122.806;2023-03-01T01:36:17;99690.28;;;7.16;63.25
50852;BME280;43953;45.508;-122.806;2023-03-01T01:36:49;99690.28;;;7.16;62.84
50852;BME280;43953;45.508;-122.806;2023-03-01T01:37:21;99693.38;;;7.13;62.82
50852;BME280;43953;45.508;-122.806;2023-03-01T01:37:52;99700.56;;;7.13;63.24
50852;BME280;43953;45.508;-122.806;2023-03-01T01:38:23;99696.50;;;7.10;63.07
50852;BME280;43953;45.508;-122.806;2023-03-01T01:38:54;99699.38;;;7.09;62.98
50852;BME280;43953;45.508;-122.806;2023-03-01T01:39:26;99696.91;;;7.07;63.23
50852;BME280;43953;45.508;-122.806;2023-03-01T01:39:58;99698.97;;;7.05;63.25
50852;BME280;43953;45.508;-122.806;2023-03-01T01:40:29;99701.84;;;7.03;63.30
50852;BME280;43953;45.508;-122.806;2023-03-01T01:41:01;99701.03;;;7.03;63.42
50852;BME280;43953;45.508;-122.806;2023-03-01T01:41:32;99702.88;;;7.02;63.41
50852;BME280;43953;45.508;-122.806;2023-03-01T01:42:03;99701.44;;;7.00;63.20
50852;BME280;43953;45.508;-122.806;2023-03-01T01:42:35;99710.50;;;6.99;63.66
50852;BME280;43953;45.508;-122.806;2023-03-01T01:43:08;99708.25;;;6.96;63.37
50852;BME280;43953;45.508;-122.806;2023-03-01T01:43:41;99707.63;;;6.94;63.63
50852;BME280;43953;45.508;-122.806;2023-03-01T01:44:14;99706.19;;;6.91;63.78
50852;BME280;43953;45.508;-122.806;2023-03-01T01:44:46;99703.75;;;6.90;63.76
50852;BME280;43953;45.508;-122.806;2023-03-01T01:45:34;99703.13;;;6.88;63.86
50852;BME280;43953;45.508;-122.806;2023-03-01T01:47:00;99707.66;;;6.87;63.93
50852;BME280;43953;45.508;-122.806;2023-03-01T01:47:32;99713.22;;;6.86;63.77
50852;BME280;43953;45.508;-122.806;2023-03-01T01:48:04;99708.66;;;6.86;63.96
50852;BME280;43953;45.508;-122.806;2023-03-01T01:48:39;99708.91;;;6.84;63.87
50852;BME280;43953;45.508;-122.806;2023-03-01T01:49:47;99710.75;;;6.84;63.89
50852;BME280;43953;45.508;-122.806;2023-03-01T01:50:19;99706.41;;;6.83;63.74
50852;BME280;43953;45.508;-122.806;2023-03-01T01:50:55;99717.97;;;6.83;64.36
50852;BME280;43953;45.508;-122.806;2023-03-01T01:51:28;99719.59;;;6.84;64.16
50852;BME280;43953;45.508;-122.806;2023-03-01T01:52:13;99724.53;;;6.88;63.99
50852;BME280;43953;45.508;-122.806;2023-03-01T01:52:47;99717.31;;;6.88;63.92
50852;BME280;43953;45.508;-122.806;2023-03-01T01:53:19;99717.31;;;6.88;63.43
50852;BME280;43953;45.508;-122.806;2023-03-01T01:53:54;99717.31;;;6.88;63.50
50852;BME280;43953;45.508;-122.806;2023-03-01T01:54:29;99726.16;;;6.89;63.79
50852;BME280;43953;45.508;-122.806;2023-03-01T01:55:03;99726.16;;;6.89;63.17
50852;BME280;43953;45.508;-122.806;2023-03-01T01:55:37;99721.22;;;6.86;63.44
50852;BME280;43953;45.508;-122.806;2023-03-01T01:56:10;99726.00;;;6.83;63.38
50852;BME280;43953;45.508;-122.806;2023-03-01T01:56:44;99728.66;;;6.83;63.75
50852;BME280;43953;45.508;-122.806;2023-03-01T01:57:29;99727.22;;;6.81;63.37
50852;BME280;43953;45.508;-122.806;2023-03-01T01:58:04;99731.13;;;6.78;63.92
50852;BME280;43953;45.508;-122.806;2023-03-01T01:58:36;99735.88;;;6.76;64.09
50852;BME280;43953;45.508;-122.806;2023-03-01T01:59:08;99732.56;;;6.74;64.17
50852;BME280;43953;45.508;-122.806;2023-03-01T01:59:40;99740.81;;;6.73;63.81
50852;BME280;43953;45.508;-122.806;2023-03-01T02:00:14;99736.28;;;6.73;64.15
50852;BME280;43953;45.508;-122.806;2023-03-01T02:00:46;99742.44;;;6.74;63.87
50852;BME280;43953;45.508;-122.806;2023-03-01T02:01:18;99733.41;;;6.75;63.54
50852;BME280;43953;45.508;-122.806;2023-03-01T02:01:51;99743.06;;;6.76;63.78
50852;BME280;43953;45.508;-122.806;2023-03-01T02:02:22;99745.75;;;6.76;63.38
50852;BME280;43953;45.508;-122.806;2023-03-01T02:03:01;99747.59;;;6.75;63.85
50852;BME280;43953;45.508;-122.806;2023-03-01T02:03:33;99747.81;;;6.74;63.49
50852;BME280;43953;45.508;-122.806;2023-03-01T02:04:07;99747.22;;;6.72;64.13
50852;BME280;43953;45.508;-122.806;2023-03-01T02:04:39;99750.88;;;6.71;63.74
50852;BME280;43953;45.508;-122.806;2023-03-01T02:06:00;99750.88;;;6.71;63.92
50852;BME280;43953;45.508;-122.806;2023-03-01T02:06:43;99754.38;;;6.71;63.87
50852;BME280;43953;45.508;-122.806;2023-03-01T02:07:18;99755.44;;;6.70;64.04
50852;BME280;43953;45.508;-122.806;2023-03-01T02:07:50;99754.59;;;6.70;64.45
50852;BME280;43953;45.508;-122.806;2023-03-01T02:08:23;99753.78;;;6.69;64.55
50852;BME280;43953;45.508;-122.806;2023-03-01T02:09:00;99757.28;;;6.70;64.39
50852;BME280;43953;45.508;-122.806;2023-03-01T02:09:32;99759.97;;;6.70;64.08
50852;BME280;43953;45.508;-122.806;2023-03-01T02:10:04;99758.31;;;6.69;63.88
50852;BME280;43953;45.508;-122.806;2023-03-01T02:10:35;99757.47;;;6.68;64.30
50852;BME280;43953;45.508;-122.806;2023-03-01T02:11:08;99762.22;;;6.66;64.67
50852;BME280;43953;45.508;-122.806;2023-03-01T02:11:41;99759.56;;;6.66;63.88
50852;BME280;43953;45.508;-122.806;2023-03-01T02:12:15;99763.25;;;6.65;63.93
50852;BME280;43953;45.508;-122.806;2023-03-01T02:12:47;99757.88;;;6.65;64.00
50852;BME280;43953;45.508;-122.806;2023-03-01T02:13:19;99764.91;;;6.66;64.33
50852;BME280;43953;45.508;-122.806;2023-03-01T02:13:50;99768.81;;;6.64;64.50
50852;BME280;43953;45.508;-122.806;2023-03-01T02:14:21;99766.13;;;6.64;64.23
50852;BME280;43953;45.508;-122.806;2023-03-01T02:14:52;99770.44;;;6.65;64.27
50852;BME280;43953;45.508;-122.806;2023-03-01T02:15:24;99762.41;;;6.65;64.33
50852;BME280;43953;45.508;-122.806;2023-03-01T02:15:57;99764.09;;;6.66;63.92
50852;BME280;43953;45.508;-122.806;2023-03-01T02:16:28;99766.53;;;6.67;63.73
50852;BME280;43953;45.508;-122.806;2023-03-01T02:16:59;99766.53;;;6.67;64.51
50852;BME280;43953;45.508;-122.806;2023-03-01T02:17:31;99766.94;;;6.64;63.93
50852;BME280;43953;45.508;-122.806;2023-03-01T02:18:02;99772.13;;;6.66;63.81
50852;BME280;43953;45.508;-122.806;2023-03-01T02:18:34;99773.94;;;6.65;63.97
50852;BME280;43953;45.508;-122.806;2023-03-01T02:19:05;99777.66;;;6.64;64.42
50852;BME280;43953;45.508;-122.806;2023-03-01T02:20:30;99775.59;;;6.66;64.63
50852;BME280;43953;45.508;-122.806;2023-03-01T02:22:30;99776.19;;;6.68;64.21
50852;BME280;43953;45.508;-122.806;2023-03-01T02:23:02;99776.19;;;6.68;64.41
50852;BME280;43953;45.508;-122.806;2023-03-01T02:23:34;99779.91;;;6.67;64.46
50852;BME280;43953;45.508;-122.806;2023-03-01T02:26:06;99796.59;;;6.63;64.17
50852;BME280;43953;45.508;-122.806;2023-03-01T02:26:40;99797.59;;;6.61;63.96
50852;BME280;43953;45.508;-122.806;2023-03-01T02:27:13;99800.28;;;6.61;64.76
50852;BME280;43953;45.508;-122.806;2023-03-01T02:28:37;99797.81;;;6.60;64.24
50852;BME280;43953;45.508;-122.806;2023-03-01T02:29:09;99802.31;;;6.59;64.57
50852;BME280;43953;45.508;-122.806;2023-03-01T02:29:40;99795.56;;;6.57;64.35
50852;BME280;43953;45.508;-122.806;2023-03-01T02:30:14;99802.56;;;6.58;64.55
50852;BME280;43953;45.508;-122.806;2023-03-01T02:30:47;99805.22;;;6.58;64.39
50852;BME280;43953;45.508;-122.806;2023-03-01T02:31:37;99810.16;;;6.61;64.60
50852;BME280;43953;45.508;-122.806;2023-03-01T02:32:14;99811.78;;;6.62;64.31
50852;BME280;43953;45.508;-122.806;2023-03-01T02:32:46;99807.31;;;6.63;64.04
50852;BME280;43953;45.508;-122.806;2023-03-01T02:33:18;99808.13;;;6.63;63.96
50852;BME280;43953;45.508;-122.806;2023-03-01T02:33:49;99809.97;;;6.63;64.08
50852;BME280;43953;45.508;-122.806;2023-03-01T02:34:22;99817.16;;;6.62;64.16
50852;BME280;43953;45.508;-122.806;2023-03-01T02:34:55;99813.03;;;6.59;64.40
50852;BME280;43953;45.508;-122.806;2023-03-01T02:35:27;99814.88;;;6.59;64.09
50852;BME280;43953;45.508;-122.806;2023-03-01T02:36:08;99814.88;;;6.59;64.05
50852;BME280;43953;45.508;-122.806;2023-03-01T02:36:42;99813.25;;;6.58;63.91
50852;BME280;43953;45.508;-122.806;2023-03-01T02:37:15;99819.22;;;6.60;63.90
50852;BME280;43953;45.508;-122.806;2023-03-01T02:37:51;99816.56;;;6.60;64.49
50852;BME280;43953;45.508;-122.806;2023-03-01T02:38:22;99821.91;;;6.60;64.10
50852;BME280;43953;45.508;-122.806;2023-03-01T02:38:56;99824.16;;;6.63;64.12
50852;BME280;43953;45.508;-122.806;2023-03-01T02:39:32;99824.16;;;6.63;64.03
50852;BME280;43953;45.508;-122.806;2023-03-01T02:40:09;99828.69;;;6.63;63.83
50852;BME280;43953;45.508;-122.806;2023-03-01T02:40:46;99821.69;;;6.61;64.05
50852;BME280;43953;45.508;-122.806;2023-03-01T02:41:18;99823.53;;;6.61;63.92
50852;BME280;43953;45.508;-122.806;2023-03-01T02:41:51;99829.06;;;6.59;63.41
50852;BME280;43953;45.508;-122.806;2023-03-01T02:42:24;99822.09;;;6.58;64.21
50852;BME280;43953;45.508;-122.806;2023-03-01T02:42:58;99825.81;;;6.57;64.14
50852;BME280;43953;45.508;-122.806;2023-03-01T02:43:30;99830.34;;;6.57;64.19
50852;BME280;43953;45.508;-122.806;2023-03-01T02:44:03;99839.38;;;6.56;64.06
50852;BME280;43953;45.508;-122.806;2023-03-01T02:44:34;99826.00;;;6.56;63.95
50852;BME280;43953;45.508;-122.806;2023-03-01T02:45:05;99831.56;;;6.54;64.29
50852;BME280;43953;45.508;-122.806;2023-03-01T02:45:36;99831.56;;;6.54;64.34
50852;BME280;43953;45.508;-122.806;2023-03-01T02:46:13;99834.44;;;6.53;63.88
50852;BME280;43953;45.508;-122.806;2023-03-01T02:46:46;99829.06;;;6.53;64.31
50852;BME280;43953;45.508;-122.806;2023-03-01T02:47:18;99833.59;;;6.52;63.80
50852;BME280;43953;45.508;-122.806;2023-03-01T02:47:49;99834.44;;;6.53;64.05
50852;BME280;43953;45.508;-122.806;2023-03-01T02:48:20;99836.28;;;6.52;64.29
50852;BME280;43953;45.508;-122.806;2023-03-01T02:48:53;99838.94;;;6.52;64.01
50852;BME280;43953;45.508;-122.806;2023-03-01T02:49:26;99831.97;;;6.51;64.28
50852;BME280;43953;45.508;-122.806;2023-03-01T02:49:58;99836.50;;;6.51;64.18
50852;BME280;43953;45.508;-122.806;2023-03-01T02:52:01;99836.06;;;6.47;64.68
50852;BME280;43953;45.508;-122.806;2023-03-01T02:52:53;99836.91;;;6.48;64.63
50852;BME280;43953;45.508;-122.806;2023-03-01T02:53:23;99841.84;;;6.51;64.44
50852;BME280;43953;45.508;-122.806;2023-03-01T02:54:31;99830.31;;;6.50;63.80
50852;BME280;43953;45.508;-122.806;2023-03-01T02:55:07;99834.84;;;6.50;64.44
50852;BME280;43953;45.508;-122.806;2023-03-01T02:55:39;99828.03;;;6.47;63.76
50852;BME280;43953;45.508;-122.806;2023-03-01T02:56:11;99832.78;;;6.45;64.06
50852;BME280;43953;45.508;-122.806;2023-03-01T02:56:45;99831.94;;;6.45;64.07